createdAt,value
2023-04-18T00:02:38.808Z,9.60
2023-04-18T00:07:31.225Z,9.60
2023-04-18T00:12:23.256Z,9.60
2023-04-18T00:17:16.145Z,9.60
2023-04-18T00:22:08.475Z,9.60
2023-04-18T00:27:01.638Z,9.60
2023-04-18T00:31:53.878Z,9.70
2023-04-18T00:36:46.653Z,9.60
2023-04-18T00:41:38.755Z,9.60
2023-04-18T00:46:30.874Z,9.60
2023-04-18T00:51:22.965Z,9.60
2023-04-18T00:56:14.978Z,9.70
2023-04-18T01:01:07.966Z,9.70
2023-04-18T01:12:01.976Z,9.50
2023-04-18T01:16:55.664Z,9.50
2023-04-18T01:21:48.054Z,9.50
2023-04-18T01:26:41.298Z,9.50
2023-04-18T01:31:41.131Z,9.50
2023-04-18T01:36:34.030Z,9.40
2023-04-18T01:41:29.783Z,9.40
2023-04-18T01:46:21.892Z,9.40
2023-04-18T01:51:14.229Z,9.30
2023-04-18T01:56:06.498Z,9.40
2023-04-18T02:01:00.308Z,9.40
2023-04-18T02:05:52.429Z,9.30
2023-04-18T02:10:44.574Z,9.40
2023-04-18T02:15:36.831Z,9.30
2023-04-18T02:20:33.625Z,9.20
2023-04-18T02:25:30.062Z,9.30
2023-04-18T02:30:23.045Z,9.20
2023-04-18T02:35:15.152Z,9.30
2023-04-18T02:40:09.186Z,9.20
2023-04-18T02:45:02.616Z,9.20
2023-04-18T02:49:55.356Z,9.20
2023-04-18T02:54:47.710Z,9.10
2023-04-18T02:59:45.748Z,9.10
2023-04-18T03:04:37.817Z,9.10
2023-04-18T03:09:33.156Z,9.00
2023-04-18T03:14:30.430Z,9.00
2023-04-18T03:19:22.899Z,9.00
2023-04-18T03:24:17.026Z,9.00
2023-04-18T03:29:13.717Z,9.00
2023-04-18T03:34:08.851Z,8.90
2023-04-18T03:39:01.328Z,8.80
2023-04-18T03:43:53.543Z,8.80
2023-04-18T03:48:45.752Z,8.70
2023-04-18T03:53:37.898Z,8.70
2023-04-18T03:58:30.230Z,8.80
2023-04-18T04:03:22.401Z,8.80
2023-04-18T04:08:15.513Z,8.80
2023-04-18T04:13:07.535Z,8.80
2023-04-18T04:18:05.498Z,8.80
2023-04-18T04:23:01.301Z,8.70
2023-04-18T04:27:55.681Z,8.60
2023-04-18T04:32:49.640Z,8.40
2023-04-18T04:37:42.318Z,8.40
2023-04-18T04:42:44.879Z,8.40
2023-04-18T04:47:43.162Z,8.40
2023-04-18T04:52:35.312Z,8.50
2023-04-18T04:57:28.478Z,8.50
2023-04-18T05:02:23.310Z,8.40
2023-04-18T05:07:15.751Z,8.30
2023-04-18T05:12:08.086Z,8.40
2023-04-18T05:17:00.300Z,8.30
2023-04-18T05:21:52.394Z,8.40
2023-04-18T05:26:44.522Z,8.40
2023-04-18T05:31:36.748Z,8.30
2023-04-18T05:36:28.986Z,8.30
2023-04-18T05:41:20.971Z,8.40
2023-04-18T05:46:14.139Z,8.50
2023-04-18T05:51:06.429Z,8.60
2023-04-18T05:56:00.360Z,8.70
2023-04-18T06:00:54.042Z,8.50
2023-04-18T06:05:46.168Z,8.50
2023-04-18T06:10:39.199Z,8.60
2023-04-18T06:15:31.669Z,8.60
2023-04-18T06:20:23.818Z,8.50
2023-04-18T06:25:16.213Z,8.60
2023-04-18T06:30:08.795Z,8.70
2023-04-18T06:35:02.394Z,8.50
2023-04-18T06:39:55.747Z,8.50
2023-04-18T06:44:47.860Z,8.50
2023-04-18T06:49:39.950Z,8.50
2023-04-18T06:54:32.089Z,8.80
2023-04-18T06:59:24.215Z,9.00
2023-04-18T07:04:16.669Z,9.10
2023-04-18T07:09:09.318Z,9.10
2023-04-18T07:14:01.474Z,9.00
2023-04-18T07:18:53.582Z,9.20
2023-04-18T07:23:45.845Z,9.10
2023-04-18T07:28:37.960Z,9.10
2023-04-18T07:33:33.694Z,9.00
2023-04-18T07:38:25.878Z,8.90
2023-04-18T07:43:19.773Z,9.00
2023-04-18T07:48:13.703Z,9.00
2023-04-18T07:53:06.244Z,9.30
2023-04-18T07:57:58.337Z,9.80
2023-04-18T08:02:50.968Z,9.90
2023-04-18T08:07:43.366Z,10.10
2023-04-18T08:12:36.712Z,10.10
2023-04-18T08:17:29.025Z,10.00
2023-04-18T08:22:21.088Z,10.20
2023-04-18T08:27:13.343Z,10.30
2023-04-18T08:32:07.941Z,10.10
2023-04-18T08:37:00.136Z,10.50
2023-04-18T08:41:59.253Z,11.00
2023-04-18T08:46:52.593Z,10.70
2023-04-18T08:51:47.290Z,10.70
2023-04-18T08:56:41.052Z,10.70
2023-04-18T09:01:58.880Z,10.90
2023-04-18T09:06:53.981Z,11.00
2023-04-18T09:11:46.049Z,11.10
2023-04-18T09:16:47.427Z,11.20
2023-04-18T09:21:41.497Z,11.30
2023-04-18T09:26:37.705Z,11.10
2023-04-18T09:31:30.531Z,10.80
2023-04-18T09:36:24.679Z,10.90
2023-04-18T09:41:20.728Z,10.70
2023-04-18T09:46:14.458Z,10.50
2023-04-18T09:51:16.009Z,10.20
2023-04-18T09:56:23.866Z,10.20
2023-04-18T10:01:16.836Z,10.30
2023-04-18T10:06:11.329Z,10.30
2023-04-18T10:11:03.407Z,10.50
2023-04-18T10:15:56.536Z,10.50
2023-04-18T10:20:48.748Z,10.60
2023-04-18T10:25:41.311Z,10.70
2023-04-18T10:30:54.604Z,10.70
2023-04-18T10:36:05.209Z,10.80
2023-04-18T10:41:33.768Z,10.80
2023-04-18T10:46:32.621Z,10.60
2023-04-18T10:51:24.810Z,10.70
2023-04-18T10:56:16.901Z,10.70
2023-04-18T11:01:13.814Z,10.70
2023-04-18T11:06:06.246Z,10.80
2023-04-18T11:11:00.025Z,10.80
2023-04-18T11:15:53.215Z,11.00
2023-04-18T11:20:50.200Z,10.80
2023-04-18T11:25:45.010Z,10.90
2023-04-18T11:30:40.695Z,10.90
2023-04-18T11:35:40.339Z,10.90
2023-04-18T11:40:32.409Z,11.00
2023-04-18T11:45:24.475Z,11.00
2023-04-18T11:50:16.625Z,11.00
2023-04-18T11:55:19.697Z,11.00
2023-04-18T12:00:12.584Z,11.00
2023-04-18T12:05:06.664Z,10.90
2023-04-18T12:09:59.009Z,10.90
2023-04-18T12:15:08.239Z,11.00
2023-04-18T12:20:10.747Z,11.10
2023-04-18T12:25:10.147Z,11.10
2023-04-18T12:30:02.213Z,11.00
2023-04-18T12:34:55.889Z,10.90
2023-04-18T12:39:47.922Z,10.90
2023-04-18T12:44:40.107Z,11.00
2023-04-18T12:49:32.115Z,11.00
2023-04-18T12:54:25.792Z,10.90
2023-04-18T12:59:18.369Z,10.90
2023-04-18T13:04:12.841Z,11.00
2023-04-18T13:09:05.464Z,10.90
2023-04-18T13:13:58.031Z,10.80
2023-04-18T13:18:50.129Z,10.90
2023-04-18T13:23:42.319Z,11.00
2023-04-18T13:28:34.300Z,10.80
2023-04-18T13:33:26.319Z,10.80
2023-04-18T13:38:18.378Z,10.80
2023-04-18T13:43:12.955Z,10.80
2023-04-18T13:48:05.954Z,10.90
2023-04-18T13:52:58.071Z,11.00
2023-04-18T13:57:50.208Z,11.10
2023-04-18T14:02:42.647Z,11.00
2023-04-18T14:07:35.506Z,11.00
2023-04-18T14:12:27.606Z,11.20
2023-04-18T14:17:19.694Z,11.40
2023-04-18T14:22:12.184Z,11.50
2023-04-18T14:27:04.210Z,11.60
2023-04-18T14:31:56.326Z,11.70
2023-04-18T14:36:48.322Z,11.70
2023-04-18T14:41:40.411Z,11.70
2023-04-18T14:46:32.616Z,11.60
2023-04-18T14:51:24.849Z,11.70
2023-04-18T14:56:20.933Z,11.60
2023-04-18T15:01:13.399Z,11.50
2023-04-18T15:06:05.654Z,11.60
2023-04-18T15:10:58.074Z,11.60
2023-04-18T15:15:54.264Z,11.20
2023-04-18T15:20:47.548Z,11.10
2023-04-18T15:25:40.141Z,11.10
2023-04-18T15:30:32.848Z,11.10
2023-04-18T15:35:25.220Z,11.20
2023-04-18T15:40:18.365Z,11.20
2023-04-18T15:45:11.013Z,11.20
2023-04-18T15:50:03.752Z,11.30
2023-04-18T15:54:57.894Z,11.10
2023-04-18T15:59:50.111Z,11.20
2023-04-18T16:04:42.118Z,11.20
2023-04-18T16:09:34.311Z,11.20
2023-04-18T16:14:26.292Z,11.30
2023-04-18T16:19:18.609Z,11.20
2023-04-18T16:24:10.864Z,11.20
2023-04-18T16:29:02.921Z,11.20
2023-04-18T16:33:55.370Z,11.20
2023-04-18T16:38:48.882Z,11.20
2023-04-18T16:43:40.938Z,11.20
2023-04-18T16:48:32.996Z,11.20
2023-04-18T16:53:25.520Z,11.20
2023-04-18T16:58:17.570Z,11.30
2023-04-18T17:03:10.167Z,11.20
2023-04-18T17:08:03.720Z,11.20
2023-04-18T17:12:56.235Z,11.30
2023-04-18T17:17:48.489Z,11.30
2023-04-18T17:22:41.227Z,11.30
2023-04-18T17:27:33.262Z,11.20
2023-04-18T17:32:25.431Z,11.20
2023-04-18T17:37:17.665Z,11.20
2023-04-18T17:42:10.131Z,11.20
2023-04-18T17:47:02.604Z,11.10
2023-04-18T17:51:54.630Z,11.10
2023-04-18T17:56:46.829Z,11.10
2023-04-18T18:01:39.928Z,11.10
2023-04-18T18:06:32.008Z,11.00
2023-04-18T18:11:24.027Z,11.00
2023-04-18T18:16:16.153Z,11.00
2023-04-18T18:21:08.310Z,11.00
2023-04-18T18:26:00.837Z,10.90
2023-04-18T18:30:53.961Z,10.90
2023-04-18T18:35:46.116Z,10.90
2023-04-18T18:40:38.154Z,10.90
2023-04-18T18:45:30.260Z,10.90
2023-04-18T18:50:24.515Z,10.90
2023-04-18T18:55:16.594Z,10.90
2023-04-18T19:00:13.406Z,10.90
2023-04-18T19:05:06.430Z,10.90
2023-04-18T19:10:01.855Z,10.90
2023-04-18T19:14:55.014Z,10.90
2023-04-18T19:19:46.991Z,10.90
2023-04-18T19:24:39.085Z,10.90
2023-04-18T19:29:32.923Z,10.80
2023-04-18T19:34:25.390Z,10.80
2023-04-18T19:39:18.247Z,10.80
2023-04-18T19:44:10.509Z,10.80
2023-04-18T19:49:02.568Z,10.80
2023-04-18T19:53:55.580Z,10.80
2023-04-18T19:58:49.016Z,10.80
2023-04-18T20:03:41.416Z,10.80
2023-04-18T20:08:36.334Z,10.80
2023-04-18T20:13:28.458Z,10.80
2023-04-18T20:18:21.083Z,10.80
2023-04-18T20:23:14.517Z,10.80
2023-04-18T20:28:06.722Z,10.80
2023-04-18T20:32:58.755Z,10.70
2023-04-18T20:37:50.908Z,10.80
2023-04-18T20:42:43.055Z,10.80
2023-04-18T20:47:35.082Z,10.70
2023-04-18T20:52:27.138Z,10.70
2023-04-18T20:57:19.933Z,10.70
2023-04-18T21:02:12.187Z,10.70
2023-04-18T21:07:04.343Z,10.70
2023-04-18T21:11:57.831Z,10.70
2023-04-18T21:16:49.864Z,10.70
2023-04-18T21:21:41.847Z,10.70
2023-04-18T21:26:33.870Z,10.60
2023-04-18T21:31:27.628Z,10.60
2023-04-18T21:36:20.024Z,10.70
2023-04-18T21:41:15.865Z,10.60
2023-04-18T21:46:08.063Z,10.70
2023-04-18T21:51:00.221Z,10.60
2023-04-18T21:55:52.299Z,10.60
2023-04-18T22:00:44.435Z,10.60
2023-04-18T22:05:37.127Z,10.50
2023-04-18T22:10:29.212Z,10.50
2023-04-18T22:15:22.897Z,10.50
2023-04-18T22:20:14.951Z,10.40
2023-04-18T22:25:11.383Z,10.40
2023-04-18T22:30:04.523Z,10.40
2023-04-18T22:34:56.844Z,10.30
2023-04-18T22:39:48.853Z,10.30
2023-04-18T22:44:41.086Z,10.30
2023-04-18T22:49:33.335Z,10.30
2023-04-18T22:54:25.835Z,10.30
2023-04-18T22:59:17.977Z,10.20
2023-04-18T23:04:10.126Z,10.20
2023-04-18T23:09:03.354Z,10.20
2023-04-18T23:13:55.483Z,10.30
2023-04-18T23:18:47.513Z,10.30
2023-04-18T23:23:39.557Z,10.30
2023-04-18T23:28:31.536Z,10.30
2023-04-18T23:33:23.678Z,10.30
2023-04-18T23:38:16.861Z,10.40
2023-04-18T23:43:08.864Z,10.40
2023-04-18T23:48:00.998Z,10.30
2023-04-18T23:52:53.139Z,10.30
2023-04-18T23:57:45.226Z,10.30
